Terminal Aerodrome Forecast
Issued by NWS

Home | Current Version | Previous Version | Text Only | Print | Product List | Glossary On
Versions: 1 2 3 4 5 6 7 8 9 10 11 12 13 14
237
FTUS42 KTBW 290520
TAFPIE
TAF
KPIE 290520Z 2906/3006 VRB03KT P6SM SCT250
     FM291500 06006KT P6SM SCT030 SCT250
     FM291800 28006KT P6SM VCTS SCT040CB BKN250=

USA.gov is the U.S. government's official web portal to all federal, state and local government web resources and services.